sensor_id;sensor_type;location;lat;lon;timestamp;P1;durP1;ratioP1;P2;durP2;ratioP2
6467;SDS011;3267;48.794;9.928;2023-04-25T04:02:40;3.90;;;1.83;;
6467;SDS011;3267;48.794;9.928;2023-04-25T04:05:07;2.60;;;1.42;;
6467;SDS011;3267;48.794;9.928;2023-04-25T04:07:34;9.25;;;1.65;;
6467;SDS011;3267;48.794;9.928;2023-04-25T04:10:05;2.55;;;1.50;;
6467;SDS011;3267;48.794;9.928;2023-04-25T04:12:32;3.78;;;1.90;;
6467;SDS011;3267;48.794;9.928;2023-04-25T04:14:58;2.15;;;1.63;;
6467;SDS011;3267;48.794;9.928;2023-04-25T04:17:25;4.85;;;2.15;;
6467;SDS011;3267;48.794;9.928;2023-04-25T04:19:51;2.42;;;1.80;;
6467;SDS011;3267;48.794;9.928;2023-04-25T04:22:17;2.20;;;1.80;;
6467;SDS011;3267;48.794;9.928;2023-04-25T04:24:43;2.10;;;1.88;;
6467;SDS011;3267;48.794;9.928;2023-04-25T04:27:11;1.70;;;1.60;;
6467;SDS011;3267;48.794;9.928;2023-04-25T04:29:38;3.10;;;1.60;;
6467;SDS011;3267;48.794;9.928;2023-04-25T04:32:04;4.55;;;1.90;;
6467;SDS011;3267;48.794;9.928;2023-04-25T04:34:33;1.75;;;1.50;;
6467;SDS011;3267;48.794;9.928;2023-04-25T04:37:00;1.73;;;1.58;;
6467;SDS011;3267;48.794;9.928;2023-04-25T04:39:26;1.52;;;1.42;;
6467;SDS011;3267;48.794;9.928;2023-04-25T04:41:52;3.38;;;1.70;;
6467;SDS011;3267;48.794;9.928;2023-04-25T04:44:18;3.80;;;1.60;;
6467;SDS011;3267;48.794;9.928;2023-04-25T04:46:44;4.53;;;1.58;;
6467;SDS011;3267;48.794;9.928;2023-04-25T04:49:11;2.40;;;1.58;;
6467;SDS011;3267;48.794;9.928;2023-04-25T04:51:39;5.10;;;1.63;;
6467;SDS011;3267;48.794;9.928;2023-04-25T04:54:10;1.50;;;1.40;;
6467;SDS011;3267;48.794;9.928;2023-04-25T04:56:39;3.30;;;1.63;;
6467;SDS011;3267;48.794;9.928;2023-04-25T04:59:07;4.30;;;1.70;;
6467;SDS011;3267;48.794;9.928;2023-04-25T05:01:33;2.92;;;1.60;;
6467;SDS011;3267;48.794;9.928;2023-04-25T05:04:01;2.13;;;1.50;;
6467;SDS011;3267;48.794;9.928;2023-04-25T05:06:28;1.60;;;1.50;;
6467;SDS011;3267;48.794;9.928;2023-04-25T05:08:55;1.10;;;1.10;;
6467;SDS011;3267;48.794;9.928;2023-04-25T05:11:21;1.60;;;1.50;;
6467;SDS011;3267;48.794;9.928;2023-04-25T05:13:49;2.17;;;1.55;;
6467;SDS011;3267;48.794;9.928;2023-04-25T05:16:16;2.35;;;1.40;;
6467;SDS011;3267;48.794;9.928;2023-04-25T05:18:42;4.88;;;1.67;;
6467;SDS011;3267;48.794;9.928;2023-04-25T05:21:08;2.92;;;1.60;;
6467;SDS011;3267;48.794;9.928;2023-04-25T05:23:34;3.65;;;1.40;;
6467;SDS011;3267;48.794;9.928;2023-04-25T05:26:00;2.63;;;1.60;;
6467;SDS011;3267;48.794;9.928;2023-04-25T05:28:26;2.70;;;1.90;;
6467;SDS011;3267;48.794;9.928;2023-04-25T05:30:52;3.53;;;1.88;;
6467;SDS011;3267;48.794;9.928;2023-04-25T05:33:18;1.60;;;1.50;;
6467;SDS011;3267;48.794;9.928;2023-04-25T05:35:44;7.07;;;2.08;;
6467;SDS011;3267;48.794;9.928;2023-04-25T05:38:10;3.63;;;2.40;;
6467;SDS011;3267;48.794;9.928;2023-04-25T05:40:36;4.10;;;1.73;;
6467;SDS011;3267;48.794;9.928;2023-04-25T05:43:02;2.55;;;1.80;;
6467;SDS011;3267;48.794;9.928;2023-04-25T05:45:28;3.05;;;1.85;;
6467;SDS011;3267;48.794;9.928;2023-04-25T05:47:54;3.08;;;2.10;;
6467;SDS011;3267;48.794;9.928;2023-04-25T05:50:21;2.15;;;1.90;;
6467;SDS011;3267;48.794;9.928;2023-04-25T05:52:47;2.28;;;1.73;;
6467;SDS011;3267;48.794;9.928;2023-04-25T05:55:13;2.85;;;1.73;;
6467;SDS011;3267;48.794;9.928;2023-04-25T05:57:39;3.60;;;1.80;;
6467;SDS011;3267;48.794;9.928;2023-04-25T06:00:11;2.60;;;1.77;;
6467;SDS011;3267;48.794;9.928;2023-04-25T06:02:38;2.50;;;1.50;;
6467;SDS011;3267;48.794;9.928;2023-04-25T06:05:04;2.20;;;1.95;;
6467;SDS011;3267;48.794;9.928;2023-04-25T06:07:30;2.70;;;1.70;;
6467;SDS011;3267;48.794;9.928;2023-04-25T06:09:56;2.42;;;1.70;;
6467;SDS011;3267;48.794;9.928;2023-04-25T06:12:22;4.78;;;2.00;;
6467;SDS011;3267;48.794;9.928;2023-04-25T06:14:48;2.35;;;1.60;;
6467;SDS011;3267;48.794;9.928;2023-04-25T06:17:14;3.50;;;1.73;;
6467;SDS011;3267;48.794;9.928;2023-04-25T06:19:40;3.03;;;2.00;;
6467;SDS011;3267;48.794;9.928;2023-04-25T06:22:07;2.13;;;1.92;;
6467;SDS011;3267;48.794;9.928;2023-04-25T06:24:33;2.83;;;2.28;;
6467;SDS011;3267;48.794;9.928;2023-04-25T06:26:59;1.92;;;1.52;;
6467;SDS011;3267;48.794;9.928;2023-04-25T06:29:26;4.00;;;2.00;;
6467;SDS011;3267;48.794;9.928;2023-04-25T06:31:52;2.03;;;1.50;;
6467;SDS011;3267;48.794;9.928;2023-04-25T06:34:18;2.28;;;2.08;;
6467;SDS011;3267;48.794;9.928;2023-04-25T06:36:44;2.53;;;1.80;;
6467;SDS011;3267;48.794;9.928;2023-04-25T06:39:10;2.63;;;2.03;;
6467;SDS011;3267;48.794;9.928;2023-04-25T06:41:36;2.42;;;1.80;;
6467;SDS011;3267;48.794;9.928;2023-04-25T06:44:02;2.08;;;1.88;;
6467;SDS011;3267;48.794;9.928;2023-04-25T06:46:28;3.05;;;2.00;;
6467;SDS011;3267;48.794;9.928;2023-04-25T06:48:54;3.33;;;2.13;;
6467;SDS011;3267;48.794;9.928;2023-04-25T06:51:20;3.53;;;1.90;;
6467;SDS011;3267;48.794;9.928;2023-04-25T06:53:46;1.77;;;1.67;;
6467;SDS011;3267;48.794;9.928;2023-04-25T06:56:12;3.05;;;2.13;;
6467;SDS011;3267;48.794;9.928;2023-04-25T06:58:38;6.55;;;1.50;;
6467;SDS011;3267;48.794;9.928;2023-04-25T07:01:04;3.42;;;2.13;;
6467;SDS011;3267;48.794;9.928;2023-04-25T07:03:30;2.20;;;1.95;;
6467;SDS011;3267;48.794;9.928;2023-04-25T07:05:56;2.08;;;1.63;;
6467;SDS011;3267;48.794;9.928;2023-04-25T07:08:22;1.92;;;1.70;;
6467;SDS011;3267;48.794;9.928;2023-04-25T07:10:48;2.00;;;1.80;;
6467;SDS011;3267;48.794;9.928;2023-04-25T07:13:15;1.92;;;1.80;;
6467;SDS011;3267;48.794;9.928;2023-04-25T07:15:41;2.42;;;1.88;;
6467;SDS011;3267;48.794;9.928;2023-04-25T07:18:07;4.90;;;2.00;;
6467;SDS011;3267;48.794;9.928;2023-04-25T07:20:33;1.85;;;1.70;;
6467;SDS011;3267;48.794;9.928;2023-04-25T07:22:59;4.53;;;2.00;;
6467;SDS011;3267;48.794;9.928;2023-04-25T07:25:25;2.20;;;2.00;;
6467;SDS011;3267;48.794;9.928;2023-04-25T07:27:51;2.70;;;1.80;;
6467;SDS011;3267;48.794;9.928;2023-04-25T07:30:17;2.63;;;2.10;;
6467;SDS011;3267;48.794;9.928;2023-04-25T07:32:43;1.90;;;1.80;;
6467;SDS011;3267;48.794;9.928;2023-04-25T07:35:10;2.50;;;1.75;;
6467;SDS011;3267;48.794;9.928;2023-04-25T07:37:36;2.22;;;1.67;;
6467;SDS011;3267;48.794;9.928;2023-04-25T07:40:02;4.63;;;1.92;;
6467;SDS011;3267;48.794;9.928;2023-04-25T07:42:29;1.92;;;1.75;;
6467;SDS011;3267;48.794;9.928;2023-04-25T07:44:55;1.85;;;1.75;;
6467;SDS011;3267;48.794;9.928;2023-04-25T07:47:21;2.50;;;1.73;;
6467;SDS011;3267;48.794;9.928;2023-04-25T07:49:47;1.92;;;1.58;;
6467;SDS011;3267;48.794;9.928;2023-04-25T07:52:13;5.00;;;2.00;;
6467;SDS011;3267;48.794;9.928;2023-04-25T07:54:40;3.35;;;1.85;;
6467;SDS011;3267;48.794;9.928;2023-04-25T07:57:06;2.42;;;2.05;;
6467;SDS011;3267;48.794;9.928;2023-04-25T07:59:33;1.90;;;1.67;;
6467;SDS011;3267;48.794;9.928;2023-04-25T08:01:59;1.85;;;1.70;;
6467;SDS011;3267;48.794;9.928;2023-04-25T08:04:26;1.63;;;1.50;;
6467;SDS011;3267;48.794;9.928;2023-04-25T08:06:52;1.10;;;1.10;;
6467;SDS011;3267;48.794;9.928;2023-04-25T08:09:19;2.90;;;1.70;;
6467;SDS011;3267;48.794;9.928;2023-04-25T08:11:45;1.77;;;1.67;;
6467;SDS011;3267;48.794;9.928;2023-04-25T08:14:11;1.75;;;1.65;;
6467;SDS011;3267;48.794;9.928;2023-04-25T08:16:38;1.98;;;1.77;;
6467;SDS011;3267;48.794;9.928;2023-04-25T08:19:04;1.67;;;1.58;;
6467;SDS011;3267;48.794;9.928;2023-04-25T08:21:30;1.40;;;1.30;;
6467;SDS011;3267;48.794;9.928;2023-04-25T08:23:56;1.50;;;1.40;;
6467;SDS011;3267;48.794;9.928;2023-04-25T08:26:23;2.83;;;1.55;;
6467;SDS011;3267;48.794;9.928;2023-04-25T08:28:50;1.33;;;1.33;;
6467;SDS011;3267;48.794;9.928;2023-04-25T08:31:16;1.95;;;1.60;;
6467;SDS011;3267;48.794;9.928;2023-04-25T08:33:42;2.75;;;1.27;;
6467;SDS011;3267;48.794;9.928;2023-04-25T08:36:10;1.05;;;1.00;;
6467;SDS011;3267;48.794;9.928;2023-04-25T08:38:36;1.10;;;1.10;;
6467;SDS011;3267;48.794;9.928;2023-04-25T08:41:02;0.90;;;0.90;;
6467;SDS011;3267;48.794;9.928;2023-04-25T08:43:29;1.48;;;1.40;;
6467;SDS011;3267;48.794;9.928;2023-04-25T08:45:58;1.50;;;1.40;;
6467;SDS011;3267;48.794;9.928;2023-04-25T08:48:26;3.58;;;1.70;;
6467;SDS011;3267;48.794;9.928;2023-04-25T08:50:54;3.17;;;1.60;;
6467;SDS011;3267;48.794;9.928;2023-04-25T08:53:28;2.72;;;1.30;;
6467;SDS011;3267;48.794;9.928;2023-04-25T08:55:54;1.70;;;1.60;;
6467;SDS011;3267;48.794;9.928;2023-04-25T08:58:21;2.88;;;1.52;;
6467;SDS011;3267;48.794;9.928;2023-04-25T09:00:47;1.33;;;1.30;;
6467;SDS011;3267;48.794;9.928;2023-04-25T09:03:14;1.67;;;1.58;;
6467;SDS011;3267;48.794;9.928;2023-04-25T09:05:41;1.50;;;1.40;;
6467;SDS011;3267;48.794;9.928;2023-04-25T09:08:07;1.45;;;1.35;;
6467;SDS011;3267;48.794;9.928;2023-04-25T09:10:33;1.30;;;1.30;;
6467;SDS011;3267;48.794;9.928;2023-04-25T09:13:09;1.63;;;1.52;;
6467;SDS011;3267;48.794;9.928;2023-04-25T09:15:51;1.60;;;1.50;;
6467;SDS011;3267;48.794;9.928;2023-04-25T09:18:30;2.03;;;1.17;;
6467;SDS011;3267;48.794;9.928;2023-04-25T09:21:04;2.90;;;1.90;;
6467;SDS011;3267;48.794;9.928;2023-04-25T09:23:30;1.27;;;1.27;;
6467;SDS011;3267;48.794;9.928;2023-04-25T09:25:57;1.75;;;1.60;;
6467;SDS011;3267;48.794;9.928;2023-04-25T09:28:24;1.50;;;1.40;;
6467;SDS011;3267;48.794;9.928;2023-04-25T09:30:56;1.70;;;1.40;;
6467;SDS011;3267;48.794;9.928;2023-04-25T09:33:29;1.65;;;1.55;;
6467;SDS011;3267;48.794;9.928;2023-04-25T09:36:01;3.03;;;1.63;;
6467;SDS011;3267;48.794;9.928;2023-04-25T09:38:27;1.90;;;1.80;;
6467;SDS011;3267;48.794;9.928;2023-04-25T09:40:55;2.50;;;1.98;;
6467;SDS011;3267;48.794;9.928;2023-04-25T09:43:22;1.90;;;1.80;;
6467;SDS011;3267;48.794;9.928;2023-04-25T09:45:48;2.22;;;1.85;;
6467;SDS011;3267;48.794;9.928;2023-04-25T09:48:24;2.53;;;2.03;;
6467;SDS011;3267;48.794;9.928;2023-04-25T09:51:03;2.22;;;2.13;;
6467;SDS011;3267;48.794;9.928;2023-04-25T09:53:30;4.05;;;3.08;;
6467;SDS011;3267;48.794;9.928;2023-04-25T09:55:57;2.60;;;2.28;;
6467;SDS011;3267;48.794;9.928;2023-04-25T09:58:25;3.08;;;2.40;;
6467;SDS011;3267;48.794;9.928;2023-04-25T10:00:52;3.92;;;3.58;;
6467;SDS011;3267;48.794;9.928;2023-04-25T10:03:18;1.98;;;1.88;;
6467;SDS011;3267;48.794;9.928;2023-04-25T10:05:46;2.92;;;2.72;;
6467;SDS011;3267;48.794;9.928;2023-04-25T10:08:14;3.88;;;2.60;;
6467;SDS011;3267;48.794;9.928;2023-04-25T10:10:41;2.78;;;2.58;;
6467;SDS011;3267;48.794;9.928;2023-04-25T10:13:08;3.28;;;2.38;;
6467;SDS011;3267;48.794;9.928;2023-04-25T10:15:35;2.28;;;2.17;;
6467;SDS011;3267;48.794;9.928;2023-04-25T10:18:05;3.60;;;2.20;;
6467;SDS011;3267;48.794;9.928;2023-04-25T10:20:32;2.35;;;2.20;;
6467;SDS011;3267;48.794;9.928;2023-04-25T10:22:58;2.88;;;2.53;;
6467;SDS011;3267;48.794;9.928;2023-04-25T10:25:29;2.80;;;2.60;;
6467;SDS011;3267;48.794;9.928;2023-04-25T10:27:56;2.92;;;2.72;;
6467;SDS011;3267;48.794;9.928;2023-04-25T10:30:22;3.63;;;2.20;;
6467;SDS011;3267;48.794;9.928;2023-04-25T10:32:48;2.88;;;2.40;;
6467;SDS011;3267;48.794;9.928;2023-04-25T10:35:16;2.47;;;2.30;;
6467;SDS011;3267;48.794;9.928;2023-04-25T10:40:28;3.35;;;2.60;;
6467;SDS011;3267;48.794;9.928;2023-04-25T10:42:55;5.88;;;2.40;;
6467;SDS011;3267;48.794;9.928;2023-04-25T10:45:21;3.08;;;2.78;;
6467;SDS011;3267;48.794;9.928;2023-04-25T10:47:48;3.30;;;2.85;;
6467;SDS011;3267;48.794;9.928;2023-04-25T10:50:14;4.15;;;3.00;;
6467;SDS011;3267;48.794;9.928;2023-04-25T10:52:43;3.10;;;2.80;;
6467;SDS011;3267;48.794;9.928;2023-04-25T10:55:10;3.63;;;3.20;;
6467;SDS011;3267;48.794;9.928;2023-04-25T10:57:39;4.78;;;2.40;;
6467;SDS011;3267;48.794;9.928;2023-04-25T11:00:21;2.05;;;1.60;;
6467;SDS011;3267;48.794;9.928;2023-04-25T11:02:52;2.30;;;2.20;;
6467;SDS011;3267;48.794;9.928;2023-04-25T11:07:48;1.83;;;1.73;;
6467;SDS011;3267;48.794;9.928;2023-04-25T11:10:16;2.67;;;2.05;;
6467;SDS011;3267;48.794;9.928;2023-04-25T11:12:42;1.95;;;1.73;;
6467;SDS011;3267;48.794;9.928;2023-04-25T11:15:08;1.80;;;1.70;;
6467;SDS011;3267;48.794;9.928;2023-04-25T11:17:34;2.05;;;1.85;;
6467;SDS011;3267;48.794;9.928;2023-04-25T11:20:00;3.00;;;1.63;;
6467;SDS011;3267;48.794;9.928;2023-04-25T11:22:27;1.67;;;1.58;;
6467;SDS011;3267;48.794;9.928;2023-04-25T11:24:54;2.45;;;2.25;;
6467;SDS011;3267;48.794;9.928;2023-04-25T11:27:20;1.30;;;1.30;;
6467;SDS011;3267;48.794;9.928;2023-04-25T11:29:47;1.70;;;1.60;;
6467;SDS011;3267;48.794;9.928;2023-04-25T11:32:14;1.88;;;1.77;;
6467;SDS011;3267;48.794;9.928;2023-04-25T11:34:43;2.28;;;2.10;;
6467;SDS011;3267;48.794;9.928;2023-04-25T11:37:10;1.83;;;1.73;;
6467;SDS011;3267;48.794;9.928;2023-04-25T11:39:42;1.70;;;1.60;;
6467;SDS011;3267;48.794;9.928;2023-04-25T11:42:09;1.80;;;1.70;;
6467;SDS011;3267;48.794;9.928;2023-04-25T11:44:35;1.23;;;1.23;;
6467;SDS011;3267;48.794;9.928;2023-04-25T11:47:01;1.92;;;1.83;;
6467;SDS011;3267;48.794;9.928;2023-04-25T11:49:30;1.05;;;1.00;;
6467;SDS011;3267;48.794;9.928;2023-04-25T11:51:57;1.25;;;1.25;;
6467;SDS011;3267;48.794;9.928;2023-04-25T11:54:23;1.20;;;1.20;;
6467;SDS011;3267;48.794;9.928;2023-04-25T11:56:49;1.20;;;1.10;;
6467;SDS011;3267;48.794;9.928;2023-04-25T11:59:15;1.45;;;1.35;;
6467;SDS011;3267;48.794;9.928;2023-04-25T12:01:48;1.58;;;1.45;;
6467;SDS011;3267;48.794;9.928;2023-04-25T12:04:19;1.50;;;1.45;;
6467;SDS011;3267;48.794;9.928;2023-04-25T12:06:46;1.10;;;1.10;;
6467;SDS011;3267;48.794;9.928;2023-04-25T12:09:51;2.40;;;1.80;;
6467;SDS011;3267;48.794;9.928;2023-04-25T12:12:36;1.75;;;1.65;;
6467;SDS011;3267;48.794;9.928;2023-04-25T12:15:16;1.80;;;1.70;;
6467;SDS011;3267;48.794;9.928;2023-04-25T12:17:45;1.85;;;1.55;;
6467;SDS011;3267;48.794;9.928;2023-04-25T12:20:13;1.67;;;1.40;;
6467;SDS011;3267;48.794;9.928;2023-04-25T12:22:44;1.45;;;1.35;;
6467;SDS011;3267;48.794;9.928;2023-04-25T12:25:12;1.33;;;1.23;;
6467;SDS011;3267;48.794;9.928;2023-04-25T12:28:08;2.17;;;1.27;;
6467;SDS011;3267;48.794;9.928;2023-04-25T12:30:51;1.52;;;1.27;;
6467;SDS011;3267;48.794;9.928;2023-04-25T12:33:17;1.45;;;1.15;;
6467;SDS011;3267;48.794;9.928;2023-04-25T12:35:43;1.08;;;1.08;;
6467;SDS011;3267;48.794;9.928;2023-04-25T12:38:26;1.85;;;1.30;;
6467;SDS011;3267;48.794;9.928;2023-04-25T12:40:56;1.40;;;1.35;;
6467;SDS011;3267;48.794;9.928;2023-04-25T12:43:25;2.47;;;1.58;;
6467;SDS011;3267;48.794;9.928;2023-04-25T12:45:52;1.40;;;1.27;;
6467;SDS011;3267;48.794;9.928;2023-04-25T12:48:19;1.48;;;1.38;;
6467;SDS011;3267;48.794;9.928;2023-04-25T12:50:45;1.48;;;1.38;;
6467;SDS011;3267;48.794;9.928;2023-04-25T12:53:14;1.00;;;1.00;;
6467;SDS011;3267;48.794;9.928;2023-04-25T12:55:40;1.15;;;1.05;;
6467;SDS011;3267;48.794;9.928;2023-04-25T12:58:07;1.20;;;1.10;;
6467;SDS011;3267;48.794;9.928;2023-04-25T13:00:33;1.05;;;1.05;;
6467;SDS011;3267;48.794;9.928;2023-04-25T13:02:59;1.35;;;1.35;;
6467;SDS011;3267;48.794;9.928;2023-04-25T13:05:25;1.55;;;1.23;;
6467;SDS011;3267;48.794;9.928;2023-04-25T13:07:51;1.33;;;1.15;;
6467;SDS011;3267;48.794;9.928;2023-04-25T13:10:17;2.25;;;1.20;;
6467;SDS011;3267;48.794;9.928;2023-04-25T13:12:43;1.20;;;1.17;;
6467;SDS011;3267;48.794;9.928;2023-04-25T13:15:11;1.10;;;1.10;;
6467;SDS011;3267;48.794;9.928;2023-04-25T13:17:37;1.30;;;1.20;;
6467;SDS011;3267;48.794;9.928;2023-04-25T13:20:04;1.13;;;1.00;;
6467;SDS011;3267;48.794;9.928;2023-04-25T13:22:37;2.67;;;1.42;;
6467;SDS011;3267;48.794;9.928;2023-04-25T13:25:05;1.63;;;1.52;;
6467;SDS011;3267;48.794;9.928;2023-04-25T13:27:31;1.95;;;1.50;;
6467;SDS011;3267;48.794;9.928;2023-04-25T13:29:59;4.03;;;1.60;;
6467;SDS011;3267;48.794;9.928;2023-04-25T13:32:26;3.33;;;1.80;;
6467;SDS011;3267;48.794;9.928;2023-04-25T13:34:53;1.92;;;1.80;;
6467;SDS011;3267;48.794;9.928;2023-04-25T13:37:19;2.38;;;2.17;;
6467;SDS011;3267;48.794;9.928;2023-04-25T13:39:49;4.07;;;2.30;;
6467;SDS011;3267;48.794;9.928;2023-04-25T13:42:15;2.80;;;2.25;;
6467;SDS011;3267;48.794;9.928;2023-04-25T13:44:41;2.67;;;2.10;;
6467;SDS011;3267;48.794;9.928;2023-04-25T13:47:07;2.40;;;2.20;;
6467;SDS011;3267;48.794;9.928;2023-04-25T13:49:33;2.20;;;2.10;;
6467;SDS011;3267;48.794;9.928;2023-04-25T13:51:59;2.67;;;2.20;;
6467;SDS011;3267;48.794;9.928;2023-04-25T13:54:25;2.33;;;2.00;;
6467;SDS011;3267;48.794;9.928;2023-04-25T13:56:51;4.43;;;2.63;;
6467;SDS011;3267;48.794;9.928;2023-04-25T13:59:23;3.75;;;2.40;;
6467;SDS011;3267;48.794;9.928;2023-04-25T14:01:50;2.83;;;2.63;;
6467;SDS011;3267;48.794;9.928;2023-04-25T14:04:16;3.00;;;2.47;;
6467;SDS011;3267;48.794;9.928;2023-04-25T14:06:45;2.60;;;2.40;;
6467;SDS011;3267;48.794;9.928;2023-04-25T14:09:12;5.97;;;2.63;;
6467;SDS011;3267;48.794;9.928;2023-04-25T14:11:38;4.97;;;2.60;;
6467;SDS011;3267;48.794;9.928;2023-04-25T14:14:04;2.97;;;2.78;;
6467;SDS011;3267;48.794;9.928;2023-04-25T14:16:30;3.80;;;2.50;;
6467;SDS011;3267;48.794;9.928;2023-04-25T14:18:57;4.80;;;3.20;;
6467;SDS011;3267;48.794;9.928;2023-04-25T14:21:23;3.50;;;2.47;;
6467;SDS011;3267;48.794;9.928;2023-04-25T14:23:50;2.75;;;2.47;;
6467;SDS011;3267;48.794;9.928;2023-04-25T14:26:16;4.22;;;2.60;;
6467;SDS011;3267;48.794;9.928;2023-04-25T14:28:42;4.90;;;2.30;;
6467;SDS011;3267;48.794;9.928;2023-04-25T14:31:08;4.90;;;2.50;;
6467;SDS011;3267;48.794;9.928;2023-04-25T14:33:34;2.45;;;2.25;;
6467;SDS011;3267;48.794;9.928;2023-04-25T14:36:00;2.40;;;2.20;;
6467;SDS011;3267;48.794;9.928;2023-04-25T14:38:26;2.55;;;2.35;;
6467;SDS011;3267;48.794;9.928;2023-04-25T14:40:52;2.67;;;2.47;;
6467;SDS011;3267;48.794;9.928;2023-04-25T14:43:19;2.90;;;2.70;;
6467;SDS011;3267;48.794;9.928;2023-04-25T14:45:45;2.90;;;2.70;;
6467;SDS011;3267;48.794;9.928;2023-04-25T14:48:11;3.53;;;2.35;;
6467;SDS011;3267;48.794;9.928;2023-04-25T14:50:37;4.32;;;2.50;;
6467;SDS011;3267;48.794;9.928;2023-04-25T14:53:03;2.67;;;2.47;;
6467;SDS011;3267;48.794;9.928;2023-04-25T14:55:30;3.03;;;2.80;;
6467;SDS011;3267;48.794;9.928;2023-04-25T14:57:56;2.70;;;2.50;;
6467;SDS011;3267;48.794;9.928;2023-04-25T15:00:25;2.47;;;2.28;;
6467;SDS011;3267;48.794;9.928;2023-04-25T15:02:51;5.72;;;2.72;;
6467;SDS011;3267;48.794;9.928;2023-04-25T15:05:17;4.57;;;2.35;;
6467;SDS011;3267;48.794;9.928;2023-04-25T15:07:44;3.33;;;2.63;;
6467;SDS011;3267;48.794;9.928;2023-04-25T15:10:12;3.00;;;2.22;;
6467;SDS011;3267;48.794;9.928;2023-04-25T15:12:41;3.55;;;2.85;;
6467;SDS011;3267;48.794;9.928;2023-04-25T15:15:07;2.90;;;2.63;;
6467;SDS011;3267;48.794;9.928;2023-04-25T15:17:43;5.68;;;4.18;;
6467;SDS011;3267;48.794;9.928;2023-04-25T15:20:10;2.83;;;2.50;;
6467;SDS011;3267;48.794;9.928;2023-04-25T15:22:40;2.25;;;2.05;;
6467;SDS011;3267;48.794;9.928;2023-04-25T15:25:07;1.90;;;1.80;;
6467;SDS011;3267;48.794;9.928;2023-04-25T15:27:34;1.40;;;1.40;;
6467;SDS011;3267;48.794;9.928;2023-04-25T15:30:04;1.40;;;1.40;;
6467;SDS011;3267;48.794;9.928;2023-04-25T15:32:36;1.02;;;1.02;;
6467;SDS011;3267;48.794;9.928;2023-04-25T15:35:03;1.17;;;1.17;;
6467;SDS011;3267;48.794;9.928;2023-04-25T15:37:30;1.10;;;1.10;;
6467;SDS011;3267;48.794;9.928;2023-04-25T15:42:52;3.42;;;1.30;;
6467;SDS011;3267;48.794;9.928;2023-04-25T15:45:25;1.10;;;1.10;;
6467;SDS011;3267;48.794;9.928;2023-04-25T15:47:51;1.80;;;1.35;;
6467;SDS011;3267;48.794;9.928;2023-04-25T15:50:19;0.90;;;0.90;;
6467;SDS011;3267;48.794;9.928;2023-04-25T15:52:45;2.40;;;1.30;;
6467;SDS011;3267;48.794;9.928;2023-04-25T15:55:19;1.38;;;1.25;;
6467;SDS011;3267;48.794;9.928;2023-04-25T15:57:50;1.15;;;1.15;;
6467;SDS011;3267;48.794;9.928;2023-04-25T16:00:17;1.23;;;1.23;;
6467;SDS011;3267;48.794;9.928;2023-04-25T16:02:46;1.17;;;1.17;;
6467;SDS011;3267;48.794;9.928;2023-04-25T16:05:15;1.80;;;1.70;;
6467;SDS011;3267;48.794;9.928;2023-04-25T16:07:48;1.45;;;1.35;;
6467;SDS011;3267;48.794;9.928;2023-04-25T16:10:20;1.30;;;1.20;;
6467;SDS011;3267;48.794;9.928;2023-04-25T16:12:48;1.63;;;1.40;;
6467;SDS011;3267;48.794;9.928;2023-04-25T16:15:14;1.92;;;1.80;;
6467;SDS011;3267;48.794;9.928;2023-04-25T16:17:40;2.97;;;2.78;;
6467;SDS011;3267;48.794;9.928;2023-04-25T16:20:06;2.70;;;2.50;;
6467;SDS011;3267;48.794;9.928;2023-04-25T16:22:40;2.03;;;1.90;;
6467;SDS011;3267;48.794;9.928;2023-04-25T16:25:07;1.75;;;1.63;;
6467;SDS011;3267;48.794;9.928;2023-04-25T16:27:34;1.98;;;1.58;;
6467;SDS011;3267;48.794;9.928;2023-04-25T16:30:04;2.30;;;2.10;;
6467;SDS011;3267;48.794;9.928;2023-04-25T16:32:32;1.75;;;1.65;;
6467;SDS011;3267;48.794;9.928;2023-04-25T16:34:58;1.55;;;1.45;;
6467;SDS011;3267;48.794;9.928;2023-04-25T16:37:24;2.20;;;2.00;;
6467;SDS011;3267;48.794;9.928;2023-04-25T16:39:50;4.60;;;1.90;;
6467;SDS011;3267;48.794;9.928;2023-04-25T16:42:17;2.40;;;1.27;;
6467;SDS011;3267;48.794;9.928;2023-04-25T16:44:43;1.70;;;1.60;;
6467;SDS011;3267;48.794;9.928;2023-04-25T16:47:09;2.30;;;2.10;;
6467;SDS011;3267;48.794;9.928;2023-04-25T16:49:37;1.70;;;1.60;;
6467;SDS011;3267;48.794;9.928;2023-04-25T16:52:03;2.45;;;1.67;;
6467;SDS011;3267;48.794;9.928;2023-04-25T16:54:29;2.30;;;1.83;;
6467;SDS011;3267;48.794;9.928;2023-04-25T16:56:55;0.82;;;0.82;;
6467;SDS011;3267;48.794;9.928;2023-04-25T16:59:22;2.92;;;2.53;;
6467;SDS011;3267;48.794;9.928;2023-04-25T17:01:48;2.70;;;2.50;;
6467;SDS011;3267;48.794;9.928;2023-04-25T17:04:14;1.50;;;1.40;;
6467;SDS011;3267;48.794;9.928;2023-04-25T17:06:40;1.90;;;1.80;;
6467;SDS011;3267;48.794;9.928;2023-04-25T17:09:06;1.60;;;1.40;;
6467;SDS011;3267;48.794;9.928;2023-04-25T17:11:32;2.83;;;1.65;;
6467;SDS011;3267;48.794;9.928;2023-04-25T17:13:58;1.38;;;1.38;;
6467;SDS011;3267;48.794;9.928;2023-04-25T17:16:32;1.27;;;1.27;;
6467;SDS011;3267;48.794;9.928;2023-04-25T17:18:59;3.10;;;2.25;;
6467;SDS011;3267;48.794;9.928;2023-04-25T17:21:27;1.48;;;1.38;;
6467;SDS011;3267;48.794;9.928;2023-04-25T17:23:53;2.03;;;1.50;;
6467;SDS011;3267;48.794;9.928;2023-04-25T17:26:21;1.85;;;1.50;;
6467;SDS011;3267;48.794;9.928;2023-04-25T17:28:47;3.88;;;1.95;;
6467;SDS011;3267;48.794;9.928;2023-04-25T17:31:14;2.25;;;1.42;;
6467;SDS011;3267;48.794;9.928;2023-04-25T17:33:41;1.25;;;1.25;;
6467;SDS011;3267;48.794;9.928;2023-04-25T17:36:07;1.98;;;1.40;;
6467;SDS011;3267;48.794;9.928;2023-04-25T17:38:33;1.70;;;1.60;;
6467;SDS011;3267;48.794;9.928;2023-04-25T17:41:03;1.50;;;1.40;;
6467;SDS011;3267;48.794;9.928;2023-04-25T17:43:29;1.58;;;1.15;;
6467;SDS011;3267;48.794;9.928;2023-04-25T17:45:57;1.52;;;1.40;;
6467;SDS011;3267;48.794;9.928;2023-04-25T17:48:23;1.65;;;1.55;;
6467;SDS011;3267;48.794;9.928;2023-04-25T17:50:50;1.67;;;1.58;;
6467;SDS011;3267;48.794;9.928;2023-04-25T17:53:16;1.50;;;1.40;;
6467;SDS011;3267;48.794;9.928;2023-04-25T17:55:42;5.63;;;1.33;;
6467;SDS011;3267;48.794;9.928;2023-04-25T17:58:09;1.65;;;1.55;;
6467;SDS011;3267;48.794;9.928;2023-04-25T18:00:35;2.75;;;2.17;;
6467;SDS011;3267;48.794;9.928;2023-04-25T18:03:01;2.25;;;1.83;;
6467;SDS011;3267;48.794;9.928;2023-04-25T18:05:28;1.83;;;1.73;;
6467;SDS011;3267;48.794;9.928;2023-04-25T18:07:54;3.78;;;2.33;;
6467;SDS011;3267;48.794;9.928;2023-04-25T18:10:20;3.97;;;1.90;;
6467;SDS011;3267;48.794;9.928;2023-04-25T18:12:46;2.30;;;2.10;;
6467;SDS011;3267;48.794;9.928;2023-04-25T18:15:12;1.88;;;1.65;;
6467;SDS011;3267;48.794;9.928;2023-04-25T18:17:38;2.45;;;2.03;;
6467;SDS011;3267;48.794;9.928;2023-04-25T18:20:06;2.47;;;2.28;;
6467;SDS011;3267;48.794;9.928;2023-04-25T18:22:32;2.50;;;2.30;;
6467;SDS011;3267;48.794;9.928;2023-04-25T18:24:58;2.83;;;2.50;;
6467;SDS011;3267;48.794;9.928;2023-04-25T18:27:25;5.97;;;2.83;;
6467;SDS011;3267;48.794;9.928;2023-04-25T18:29:51;3.42;;;3.00;;
6467;SDS011;3267;48.794;9.928;2023-04-25T18:32:17;3.38;;;3.08;;
6467;SDS011;3267;48.794;9.928;2023-04-25T18:34:43;5.93;;;3.00;;
6467;SDS011;3267;48.794;9.928;2023-04-25T18:37:10;4.82;;;3.70;;
6467;SDS011;3267;48.794;9.928;2023-04-25T18:39:38;10.60;;;6.40;;
6467;SDS011;3267;48.794;9.928;2023-04-25T18:42:05;8.15;;;5.15;;
6467;SDS011;3267;48.794;9.928;2023-04-25T18:44:32;4.85;;;4.35;;
6467;SDS011;3267;48.794;9.928;2023-04-25T18:47:03;5.30;;;4.53;;
6467;SDS011;3267;48.794;9.928;2023-04-25T18:49:29;3.58;;;3.28;;
6467;SDS011;3267;48.794;9.928;2023-04-25T18:51:56;5.57;;;4.10;;
6467;SDS011;3267;48.794;9.928;2023-04-25T18:54:22;6.55;;;4.53;;
6467;SDS011;3267;48.794;9.928;2023-04-25T18:56:48;10.10;;;5.18;;
6467;SDS011;3267;48.794;9.928;2023-04-25T18:59:15;3.55;;;3.25;;
6467;SDS011;3267;48.794;9.928;2023-04-25T19:01:42;3.72;;;3.30;;
6467;SDS011;3267;48.794;9.928;2023-04-25T19:04:08;2.97;;;2.72;;
6467;SDS011;3267;48.794;9.928;2023-04-25T19:06:34;3.22;;;2.40;;
6467;SDS011;3267;48.794;9.928;2023-04-25T19:09:01;2.20;;;2.03;;
6467;SDS011;3267;48.794;9.928;2023-04-25T19:11:27;2.25;;;2.05;;
6467;SDS011;3267;48.794;9.928;2023-04-25T19:13:53;2.88;;;2.15;;
6467;SDS011;3267;48.794;9.928;2023-04-25T19:16:21;2.05;;;1.80;;
6467;SDS011;3267;48.794;9.928;2023-04-25T19:18:47;1.88;;;1.77;;
6467;SDS011;3267;48.794;9.928;2023-04-25T19:21:15;1.88;;;1.77;;
6467;SDS011;3267;48.794;9.928;2023-04-25T19:23:41;3.33;;;1.85;;
6467;SDS011;3267;48.794;9.928;2023-04-25T19:26:07;6.35;;;2.08;;